sensor_id;sensor_type;location;lat;lon;timestamp;pressure;altitude;pressure_sealevel;temperature;humidity
52343;BME280;38277;51.972;4.624;2022-07-11T00:05:38;102630.0;;;18.5;72.5
52343;BME280;38277;51.972;4.624;2022-07-11T00:15:36;102640.0;;;18.6;73.0
52343;BME280;38277;51.972;4.624;2022-07-11T00:18:37;102630.0;;;18.7;73.0
52343;BME280;38277;51.972;4.624;2022-07-11T00:26:00;102630.0;;;18.8;73.0
52343;BME280;38277;51.972;4.624;2022-07-11T00:32:02;102630.0;;;18.9;73.0
52343;BME280;38277;51.972;4.624;2022-07-11T00:41:05;102630.0;;;18.9;73.0
52343;BME280;38277;51.972;4.624;2022-07-11T00:44:12;102620.0;;;19.0;72.5
52343;BME280;38277;51.972;4.624;2022-07-11T00:50:14;102620.0;;;19.0;72.5
52343;BME280;38277;51.972;4.624;2022-07-11T00:57:45;102620.0;;;19.0;72.0
52343;BME280;38277;51.972;4.624;2022-07-11T01:06:48;102630.0;;;19.0;72.0
52343;BME280;38277;51.972;4.624;2022-07-11T01:11:09;102630.0;;;19.0;72.0
52343;BME280;38277;51.972;4.624;2022-07-11T01:17:09;102620.0;;;19.0;72.0
52343;BME280;38277;51.972;4.624;2022-07-11T01:20:10;102630.0;;;19.0;71.5
52343;BME280;38277;51.972;4.624;2022-07-11T01:24:32;102630.0;;;19.1;71.5
52343;BME280;38277;51.972;4.624;2022-07-11T01:29:13;102630.0;;;19.1;71.5
52343;BME280;38277;51.972;4.624;2022-07-11T01:38:01;102630.0;;;19.0;71.5
52343;BME280;38277;51.972;4.624;2022-07-11T01:42:44;102630.0;;;19.0;71.5
52343;BME280;38277;51.972;4.624;2022-07-11T01:46:59;102630.0;;;19.1;71.5
52343;BME280;38277;51.972;4.624;2022-07-11T01:51:56;102630.0;;;19.1;71.5
52343;BME280;38277;51.972;4.624;2022-07-11T01:56:20;102630.0;;;19.1;71.5
52343;BME280;38277;51.972;4.624;2022-07-11T02:05:04;102620.0;;;19.2;71.5
52343;BME280;38277;51.972;4.624;2022-07-11T02:14:13;102610.0;;;19.3;71.0
52343;BME280;38277;51.972;4.624;2022-07-11T02:18:52;102620.0;;;19.3;71.0
52343;BME280;38277;51.972;4.624;2022-07-11T02:36:36;102610.0;;;19.3;71.5
52343;BME280;38277;51.972;4.624;2022-07-11T02:41:04;102610.0;;;19.3;71.5
52343;BME280;38277;51.972;4.624;2022-07-11T02:54:38;102600.0;;;19.3;71.0
52343;BME280;38277;51.972;4.624;2022-07-11T02:59:20;102610.0;;;19.3;71.0
52343;BME280;38277;51.972;4.624;2022-07-11T03:03:40;102620.0;;;19.3;71.0
52343;BME280;38277;51.972;4.624;2022-07-11T03:08:37;102600.0;;;19.3;71.5
52343;BME280;38277;51.972;4.624;2022-07-11T03:20:41;102610.0;;;19.4;71.0
52343;BME280;38277;51.972;4.624;2022-07-11T03:29:44;102610.0;;;19.3;71.0
52343;BME280;38277;51.972;4.624;2022-07-11T03:35:46;102610.0;;;19.4;71.0
52343;BME280;38277;51.972;4.624;2022-07-11T03:44:49;102620.0;;;19.4;71.0
52343;BME280;38277;51.972;4.624;2022-07-11T03:53:52;102610.0;;;19.4;71.0
52343;BME280;38277;51.972;4.624;2022-07-11T04:05:56;102610.0;;;19.4;71.0
52343;BME280;38277;51.972;4.624;2022-07-11T04:11:59;102620.0;;;19.4;71.0
52343;BME280;38277;51.972;4.624;2022-07-11T04:24:03;102610.0;;;19.5;71.0
52343;BME280;38277;51.972;4.624;2022-07-11T04:30:05;102620.0;;;19.5;70.5
52343;BME280;38277;51.972;4.624;2022-07-11T04:42:09;102620.0;;;19.5;71.0
52343;BME280;38277;51.972;4.624;2022-07-11T04:48:11;102610.0;;;19.4;71.0
52343;BME280;38277;51.972;4.624;2022-07-11T05:00:16;102610.0;;;19.4;71.0
52343;BME280;38277;51.972;4.624;2022-07-11T05:06:17;102620.0;;;19.4;71.0
52343;BME280;38277;51.972;4.624;2022-07-11T05:18:21;102620.0;;;19.4;71.0
52343;BME280;38277;51.972;4.624;2022-07-11T05:30:25;102630.0;;;19.5;71.0
52343;BME280;38277;51.972;4.624;2022-07-11T05:36:28;102650.0;;;19.5;71.0
52343;BME280;38277;51.972;4.624;2022-07-11T05:42:30;102660.0;;;19.6;70.5
52343;BME280;38277;51.972;4.624;2022-07-11T05:54:35;102660.0;;;19.5;70.5
52343;BME280;38277;51.972;4.624;2022-07-11T06:00:36;102670.0;;;19.5;71.0
52343;BME280;38277;51.972;4.624;2022-07-11T06:08:05;102670.0;;;19.5;70.5
52343;BME280;38277;51.972;4.624;2022-07-11T06:14:08;102670.0;;;19.5;70.5
52343;BME280;38277;51.972;4.624;2022-07-11T06:19:04;102660.0;;;19.4;70.5
52343;BME280;38277;51.972;4.624;2022-07-11T06:32:23;102650.0;;;19.7;70.5
52343;BME280;38277;51.972;4.624;2022-07-11T06:39:53;102650.0;;;19.8;70.0
52343;BME280;38277;51.972;4.624;2022-07-11T06:45:55;102640.0;;;19.9;69.5
52343;BME280;38277;51.972;4.624;2022-07-11T06:53:02;102640.0;;;20.2;69.0
52343;BME280;38277;51.972;4.624;2022-07-11T07:02:05;102650.0;;;20.2;68.5
52343;BME280;38277;51.972;4.624;2022-07-11T07:12:57;102660.0;;;20.5;67.5
52343;BME280;38277;51.972;4.624;2022-07-11T07:20:21;102670.0;;;20.8;66.0
52343;BME280;38277;51.972;4.624;2022-07-11T07:26:23;102670.0;;;20.9;65.5
52343;BME280;38277;51.972;4.624;2022-07-11T07:33:46;102670.0;;;21.0;65.0
52343;BME280;38277;51.972;4.624;2022-07-11T07:38:45;102660.0;;;21.2;64.5
52343;BME280;38277;51.972;4.624;2022-07-11T07:44:44;102670.0;;;21.3;64.0
52343;BME280;38277;51.972;4.624;2022-07-11T07:51:41;102670.0;;;21.5;63.0
52343;BME280;38277;51.972;4.624;2022-07-11T07:57:44;102660.0;;;21.5;63.0
52343;BME280;38277;51.972;4.624;2022-07-11T08:05:04;102670.0;;;21.8;62.5
52343;BME280;38277;51.972;4.624;2022-07-11T08:11:06;102670.0;;;22.0;62.0
52343;BME280;38277;51.972;4.624;2022-07-11T08:17:08;102670.0;;;22.2;60.5
52343;BME280;38277;51.972;4.624;2022-07-11T08:23:11;102670.0;;;22.4;60.0
52343;BME280;38277;51.972;4.624;2022-07-11T08:29:12;102670.0;;;22.5;59.5
52343;BME280;38277;51.972;4.624;2022-07-11T08:35:14;102680.0;;;22.5;59.5
52343;BME280;38277;51.972;4.624;2022-07-11T08:41:16;102670.0;;;22.6;59.5
52343;BME280;38277;51.972;4.624;2022-07-11T08:54:32;102670.0;;;23.1;58.0
52343;BME280;38277;51.972;4.624;2022-07-11T09:00:33;102660.0;;;23.3;57.5
52343;BME280;38277;51.972;4.624;2022-07-11T09:06:35;102660.0;;;23.5;56.5
52343;BME280;38277;51.972;4.624;2022-07-11T09:15:43;102660.0;;;23.8;55.5
52343;BME280;38277;51.972;4.624;2022-07-11T09:22:05;102670.0;;;24.0;54.5
52343;BME280;38277;51.972;4.624;2022-07-11T09:25:59;102670.0;;;24.2;53.5
52343;BME280;38277;51.972;4.624;2022-07-11T09:32:01;102660.0;;;24.1;53.5
52343;BME280;38277;51.972;4.624;2022-07-11T09:45:39;102650.0;;;24.6;53.0
52343;BME280;38277;51.972;4.624;2022-07-11T09:51:42;102660.0;;;24.8;52.5
52343;BME280;38277;51.972;4.624;2022-07-11T09:57:53;102660.0;;;24.9;51.5
52343;BME280;38277;51.972;4.624;2022-07-11T10:06:57;102670.0;;;24.9;51.5
52343;BME280;38277;51.972;4.624;2022-07-11T10:14:09;102660.0;;;24.9;51.5
52343;BME280;38277;51.972;4.624;2022-07-11T10:25:07;102660.0;;;25.7;49.0
52343;BME280;38277;51.972;4.624;2022-07-11T10:38:22;102640.0;;;26.7;47.5
52343;BME280;38277;51.972;4.624;2022-07-11T10:44:23;102650.0;;;27.2;46.0
52343;BME280;38277;51.972;4.624;2022-07-11T10:51:42;102660.0;;;27.2;45.5
52343;BME280;38277;51.972;4.624;2022-07-11T11:00:36;102660.0;;;27.2;45.0
52343;BME280;38277;51.972;4.624;2022-07-11T11:05:44;102650.0;;;27.2;44.5
52343;BME280;38277;51.972;4.624;2022-07-11T11:11:37;102640.0;;;27.7;43.5
52343;BME280;38277;51.972;4.624;2022-07-11T11:18:41;102650.0;;;28.8;41.0
52343;BME280;38277;51.972;4.624;2022-07-11T11:27:33;102650.0;;;28.6;41.0
52343;BME280;38277;51.972;4.624;2022-07-11T11:30:34;102650.0;;;29.0;40.0
52343;BME280;38277;51.972;4.624;2022-07-11T11:42:40;102620.0;;;31.0;35.5
52343;BME280;38277;51.972;4.624;2022-07-11T11:54:50;102620.0;;;31.5;34.0
52343;BME280;38277;51.972;4.624;2022-07-11T12:00:53;102620.0;;;32.1;32.0
52343;BME280;38277;51.972;4.624;2022-07-11T12:08:27;102630.0;;;30.7;34.5
52343;BME280;38277;51.972;4.624;2022-07-11T12:17:31;102620.0;;;30.6;35.0
52343;BME280;38277;51.972;4.624;2022-07-11T12:21:50;102610.0;;;32.2;32.5
52343;BME280;38277;51.972;4.624;2022-07-11T12:27:55;102610.0;;;33.6;30.5
52343;BME280;38277;51.972;4.624;2022-07-11T12:35:21;102610.0;;;35.4;28.0
52343;BME280;38277;51.972;4.624;2022-07-11T12:44:25;102600.0;;;36.1;27.0
52343;BME280;38277;51.972;4.624;2022-07-11T12:48:37;102580.0;;;38.2;24.5
52343;BME280;38277;51.972;4.624;2022-07-11T12:54:36;102580.0;;;39.0;23.5
52343;BME280;38277;51.972;4.624;2022-07-11T13:00:42;102580.0;;;38.1;24.0
52343;BME280;38277;51.972;4.624;2022-07-11T13:09:57;102570.0;;;37.8;25.0
52343;BME280;38277;51.972;4.624;2022-07-11T13:12:58;102570.0;;;38.7;23.5
52343;BME280;38277;51.972;4.624;2022-07-11T13:20:23;102560.0;;;39.3;23.5
52343;BME280;38277;51.972;4.624;2022-07-11T13:26:22;102550.0;;;39.8;22.5
52343;BME280;38277;51.972;4.624;2022-07-11T13:39:34;102560.0;;;40.7;21.5
52343;BME280;38277;51.972;4.624;2022-07-11T13:47:20;102550.0;;;42.6;19.5
52343;BME280;38277;51.972;4.624;2022-07-11T13:53:22;102550.0;;;43.2;18.5
52343;BME280;38277;51.972;4.624;2022-07-11T14:03:56;102550.0;;;43.5;18.0
52343;BME280;38277;51.972;4.624;2022-07-11T14:14:08;102550.0;;;43.5;17.5
52343;BME280;38277;51.972;4.624;2022-07-11T14:20:10;102560.0;;;42.4;19.0
52343;BME280;38277;51.972;4.624;2022-07-11T14:30:49;102540.0;;;43.8;18.0
52343;BME280;38277;51.972;4.624;2022-07-11T14:33:52;102550.0;;;44.3;17.5
52343;BME280;38277;51.972;4.624;2022-07-11T14:41:13;102530.0;;;45.3;16.5
52343;BME280;38277;51.972;4.624;2022-07-11T14:47:14;102530.0;;;45.5;16.0
52343;BME280;38277;51.972;4.624;2022-07-11T14:57:46;102540.0;;;43.5;17.5
52343;BME280;38277;51.972;4.624;2022-07-11T15:00:47;102540.0;;;40.6;20.5
52343;BME280;38277;51.972;4.624;2022-07-11T15:07:59;102530.0;;;41.2;20.5
52343;BME280;38277;51.972;4.624;2022-07-11T15:14:01;102530.0;;;42.1;19.5
52343;BME280;38277;51.972;4.624;2022-07-11T15:20:03;102540.0;;;43.1;19.0
52343;BME280;38277;51.972;4.624;2022-07-11T15:26:08;102530.0;;;44.1;17.5
52343;BME280;38277;51.972;4.624;2022-07-11T15:32:11;102530.0;;;44.3;17.5
52343;BME280;38277;51.972;4.624;2022-07-11T15:39:51;102530.0;;;40.3;21.0
52343;BME280;38277;51.972;4.624;2022-07-11T15:48:54;102520.0;;;39.3;22.0
52343;BME280;38277;51.972;4.624;2022-07-11T15:53:07;102510.0;;;40.9;21.0
52343;BME280;38277;51.972;4.624;2022-07-11T15:59:09;102510.0;;;40.9;21.5
52343;BME280;38277;51.972;4.624;2022-07-11T16:06:35;102490.0;;;42.2;20.0
52343;BME280;38277;51.972;4.624;2022-07-11T16:12:37;102490.0;;;42.1;20.0
52343;BME280;38277;51.972;4.624;2022-07-11T16:18:39;102490.0;;;42.4;20.0
52343;BME280;38277;51.972;4.624;2022-07-11T16:21:40;102480.0;;;42.2;20.0
52343;BME280;38277;51.972;4.624;2022-07-11T16:32:21;102490.0;;;41.4;21.0
52343;BME280;38277;51.972;4.624;2022-07-11T16:38:23;102500.0;;;40.5;21.5
52343;BME280;38277;51.972;4.624;2022-07-11T16:42:55;102500.0;;;38.8;23.5
52343;BME280;38277;51.972;4.624;2022-07-11T16:51:58;102500.0;;;38.3;24.0
52343;BME280;38277;51.972;4.624;2022-07-11T16:59:00;102500.0;;;38.7;24.0
52343;BME280;38277;51.972;4.624;2022-07-11T17:05:02;102490.0;;;38.3;24.0
52343;BME280;38277;51.972;4.624;2022-07-11T17:08:03;102500.0;;;37.0;25.5
52343;BME280;38277;51.972;4.624;2022-07-11T17:14:07;102500.0;;;34.0;29.5
52343;BME280;38277;51.972;4.624;2022-07-11T17:23:10;102500.0;;;33.0;31.5
52343;BME280;38277;51.972;4.624;2022-07-11T17:27:43;102500.0;;;31.0;35.5
52343;BME280;38277;51.972;4.624;2022-07-11T17:32:40;102510.0;;;30.4;37.0
52343;BME280;38277;51.972;4.624;2022-07-11T17:36:40;102510.0;;;29.9;37.5
52343;BME280;38277;51.972;4.624;2022-07-11T17:45:49;102500.0;;;29.3;39.0
52343;BME280;38277;51.972;4.624;2022-07-11T17:54:30;102510.0;;;28.7;40.5
52343;BME280;38277;51.972;4.624;2022-07-11T17:59:17;102520.0;;;28.5;41.5
52343;BME280;38277;51.972;4.624;2022-07-11T18:03:52;102520.0;;;28.4;42.0
52343;BME280;38277;51.972;4.624;2022-07-11T18:12:28;102510.0;;;28.1;42.0
52343;BME280;38277;51.972;4.624;2022-07-11T18:17:23;102520.0;;;27.9;42.5
52343;BME280;38277;51.972;4.624;2022-07-11T18:30:54;102530.0;;;27.6;43.5
52343;BME280;38277;51.972;4.624;2022-07-11T18:35:02;102510.0;;;27.5;43.5
52343;BME280;38277;51.972;4.624;2022-07-11T18:44:09;102520.0;;;27.2;44.5
52343;BME280;38277;51.972;4.624;2022-07-11T18:49:05;102500.0;;;27.1;45.0
52343;BME280;38277;51.972;4.624;2022-07-11T18:58:09;102510.0;;;26.7;45.0
52343;BME280;38277;51.972;4.624;2022-07-11T19:13:14;102520.0;;;26.3;46.0
52343;BME280;38277;51.972;4.624;2022-07-11T19:16:15;102520.0;;;26.0;46.5
52343;BME280;38277;51.972;4.624;2022-07-11T19:25:18;102520.0;;;25.7;47.0
52343;BME280;38277;51.972;4.624;2022-07-11T19:34:21;102520.0;;;25.4;47.5
52343;BME280;38277;51.972;4.624;2022-07-11T19:46:25;102530.0;;;25.1;48.5
52343;BME280;38277;51.972;4.624;2022-07-11T19:52:27;102540.0;;;24.8;50.0
52343;BME280;38277;51.972;4.624;2022-07-11T20:01:31;102560.0;;;24.5;49.0
52343;BME280;38277;51.972;4.624;2022-07-11T20:10:34;102570.0;;;24.2;49.0
52343;BME280;38277;51.972;4.624;2022-07-11T20:19:37;102590.0;;;23.9;51.5
52343;BME280;38277;51.972;4.624;2022-07-11T20:28:40;102600.0;;;23.5;54.5
52343;BME280;38277;51.972;4.624;2022-07-11T20:37:43;102610.0;;;23.2;56.5
52343;BME280;38277;51.972;4.624;2022-07-11T20:42:40;102610.0;;;23.1;57.5
52343;BME280;38277;51.972;4.624;2022-07-11T20:50:25;102620.0;;;22.8;59.5
52343;BME280;38277;51.972;4.624;2022-07-11T20:59:28;102620.0;;;22.7;59.5
52343;BME280;38277;51.972;4.624;2022-07-11T21:03:31;102620.0;;;22.4;60.5
52343;BME280;38277;51.972;4.624;2022-07-11T21:09:33;102620.0;;;22.3;61.0
52343;BME280;38277;51.972;4.624;2022-07-11T21:18:36;102620.0;;;22.2;61.5
52343;BME280;38277;51.972;4.624;2022-07-11T21:24:55;102630.0;;;22.1;62.0
52343;BME280;38277;51.972;4.624;2022-07-11T21:27:56;102620.0;;;22.0;62.0
52343;BME280;38277;51.972;4.624;2022-07-11T21:35:10;102610.0;;;21.9;62.5
52343;BME280;38277;51.972;4.624;2022-07-11T21:44:13;102620.0;;;21.8;63.0
52343;BME280;38277;51.972;4.624;2022-07-11T21:51:53;102630.0;;;21.6;63.5
52343;BME280;38277;51.972;4.624;2022-07-11T22:02:24;102640.0;;;21.5;64.0
52343;BME280;38277;51.972;4.624;2022-07-11T22:06:38;102630.0;;;21.3;64.0
52343;BME280;38277;51.972;4.624;2022-07-11T22:11:34;102630.0;;;21.2;64.0
52343;BME280;38277;51.972;4.624;2022-07-11T22:20:37;102630.0;;;21.1;65.0
52343;BME280;38277;51.972;4.624;2022-07-11T22:29:41;102620.0;;;21.0;66.0
52343;BME280;38277;51.972;4.624;2022-07-11T22:41:45;102620.0;;;20.8;66.0
52343;BME280;38277;51.972;4.624;2022-07-11T22:47:47;102610.0;;;20.7;66.5
52343;BME280;38277;51.972;4.624;2022-07-11T22:56:50;102610.0;;;20.6;66.5
52343;BME280;38277;51.972;4.624;2022-07-11T23:05:53;102620.0;;;20.4;66.5
52343;BME280;38277;51.972;4.624;2022-07-11T23:14:57;102610.0;;;20.3;67.0
52343;BME280;38277;51.972;4.624;2022-07-11T23:23:59;102620.0;;;20.1;67.0
52343;BME280;38277;51.972;4.624;2022-07-11T23:33:02;102620.0;;;20.0;67.0
52343;BME280;38277;51.972;4.624;2022-07-11T23:42:06;102610.0;;;19.8;67.5
52343;BME280;38277;51.972;4.624;2022-07-11T23:54:10;102600.0;;;19.6;68.0
